sensor_id;sensor_type;location;lat;lon;timestamp;pressure;altitude;pressure_sealevel;temperature;humidity
40872;BME280;26591;43.264;26.940;2023-04-09T00:00:24;99461.31;;;7.20;72.08
40872;BME280;26591;43.264;26.940;2023-04-09T00:02:49;99465.47;;;7.23;72.05
40872;BME280;26591;43.264;26.940;2023-04-09T00:05:15;99466.81;;;7.17;72.91
40872;BME280;26591;43.264;26.940;2023-04-09T00:07:40;99466.34;;;7.33;72.69
40872;BME280;26591;43.264;26.940;2023-04-09T00:10:06;99464.41;;;7.35;72.91
40872;BME280;26591;43.264;26.940;2023-04-09T00:12:32;99469.84;;;7.53;72.15
40872;BME280;26591;43.264;26.940;2023-04-09T00:14:57;99464.97;;;7.58;71.59
40872;BME280;26591;43.264;26.940;2023-04-09T00:17:23;99474.00;;;7.56;72.17
40872;BME280;26591;43.264;26.940;2023-04-09T00:19:53;99463.91;;;7.61;71.39
40872;BME280;26591;43.264;26.940;2023-04-09T00:22:18;99471.97;;;7.28;71.92
40872;BME280;26591;43.264;26.940;2023-04-09T00:24:44;99478.16;;;7.48;72.13
40872;BME280;26591;43.264;26.940;2023-04-09T00:27:12;99472.72;;;7.40;72.22
40872;BME280;26591;43.264;26.940;2023-04-09T00:29:38;99472.47;;;7.53;72.23
40872;BME280;26591;43.264;26.940;2023-04-09T00:32:04;99476.88;;;7.43;72.46
40872;BME280;26591;43.264;26.940;2023-04-09T00:34:29;99475.34;;;7.40;72.53
40872;BME280;26591;43.264;26.940;2023-04-09T00:36:55;99472.16;;;7.37;72.38
40872;BME280;26591;43.264;26.940;2023-04-09T00:39:20;99475.91;;;7.34;73.49
40872;BME280;26591;43.264;26.940;2023-04-09T00:41:46;99480.78;;;7.48;73.25
40872;BME280;26591;43.264;26.940;2023-04-09T00:44:11;99478.28;;;7.47;73.05
40872;BME280;26591;43.264;26.940;2023-04-09T00:46:46;99474.44;;;7.61;72.22
40872;BME280;26591;43.264;26.940;2023-04-09T00:49:11;99468.59;;;7.47;73.25
40872;BME280;26591;43.264;26.940;2023-04-09T00:51:37;99473.72;;;7.59;72.11
40872;BME280;26591;43.264;26.940;2023-04-09T00:54:03;99472.06;;;7.58;72.14
40872;BME280;26591;43.264;26.940;2023-04-09T00:56:28;99463.47;;;7.66;71.98
40872;BME280;26591;43.264;26.940;2023-04-09T00:58:54;99467.63;;;7.68;71.64
40872;BME280;26591;43.264;26.940;2023-04-09T01:01:20;99468.19;;;7.62;71.92
40872;BME280;26591;43.264;26.940;2023-04-09T01:03:47;99465.97;;;7.67;71.42
40872;BME280;26591;43.264;26.940;2023-04-09T01:15:05;99470.78;;;7.42;72.26
40872;BME280;26591;43.264;26.940;2023-04-09T01:17:43;99471.22;;;7.57;71.93
40872;BME280;26591;43.264;26.940;2023-04-09T01:20:26;99471.50;;;7.44;71.93
40872;BME280;26591;43.264;26.940;2023-04-09T01:23:06;99476.47;;;7.57;71.70
40872;BME280;26591;43.264;26.940;2023-04-09T01:28:30;99470.53;;;7.55;70.73
40872;BME280;26591;43.264;26.940;2023-04-09T01:31:00;99472.00;;;7.38;71.42
40872;BME280;26591;43.264;26.940;2023-04-09T01:33:29;99470.34;;;7.37;71.04
40872;BME280;26591;43.264;26.940;2023-04-09T01:35:56;99475.91;;;7.34;71.07
40872;BME280;26591;43.264;26.940;2023-04-09T01:38:23;99468.00;;;7.44;70.61
40872;BME280;26591;43.264;26.940;2023-04-09T01:40:49;99471.31;;;7.26;70.99
40872;BME280;26591;43.264;26.940;2023-04-09T01:43:17;99471.44;;;7.25;71.36
40872;BME280;26591;43.264;26.940;2023-04-09T01:45:43;99468.78;;;7.25;71.56
40872;BME280;26591;43.264;26.940;2023-04-09T01:48:11;99467.81;;;7.26;71.51
40872;BME280;26591;43.264;26.940;2023-04-09T01:50:37;99464.63;;;7.22;71.18
40872;BME280;26591;43.264;26.940;2023-04-09T01:53:04;99466.53;;;7.10;70.48
40872;BME280;26591;43.264;26.940;2023-04-09T01:55:30;99457.63;;;6.70;70.91
40872;BME280;26591;43.264;26.940;2023-04-09T01:57:55;99463.59;;;6.72;71.52
40872;BME280;26591;43.264;26.940;2023-04-09T02:00:23;99459.94;;;6.64;71.58
40872;BME280;26591;43.264;26.940;2023-04-09T02:03:10;99460.59;;;6.56;72.34
40872;BME280;26591;43.264;26.940;2023-04-09T02:05:43;99459.53;;;6.37;73.05
40872;BME280;26591;43.264;26.940;2023-04-09T02:08:11;99456.59;;;6.09;74.28
40872;BME280;26591;43.264;26.940;2023-04-09T02:10:39;99457.94;;;5.92;74.95
40872;BME280;26591;43.264;26.940;2023-04-09T02:13:08;99463.38;;;5.79;75.74
40872;BME280;26591;43.264;26.940;2023-04-09T02:15:37;99466.34;;;5.75;77.29
40872;BME280;26591;43.264;26.940;2023-04-09T02:18:04;99467.22;;;5.64;77.83
40872;BME280;26591;43.264;26.940;2023-04-09T02:20:44;99464.31;;;5.78;78.27
40872;BME280;26591;43.264;26.940;2023-04-09T02:23:09;99455.81;;;5.86;78.11
40872;BME280;26591;43.264;26.940;2023-04-09T02:25:35;99462.72;;;5.55;79.44
40872;BME280;26591;43.264;26.940;2023-04-09T02:28:00;99469.94;;;5.74;79.88
40872;BME280;26591;43.264;26.940;2023-04-09T02:30:26;99467.84;;;5.89;79.57
40872;BME280;26591;43.264;26.940;2023-04-09T02:32:51;99468.78;;;5.67;80.06
40872;BME280;26591;43.264;26.940;2023-04-09T02:35:19;99474.50;;;5.60;80.45
40872;BME280;26591;43.264;26.940;2023-04-09T02:37:44;99468.88;;;5.76;80.95
40872;BME280;26591;43.264;26.940;2023-04-09T02:40:10;99466.94;;;5.78;80.59
40872;BME280;26591;43.264;26.940;2023-04-09T02:42:36;99470.53;;;5.77;81.22
40872;BME280;26591;43.264;26.940;2023-04-09T02:45:01;99475.97;;;5.86;81.02
40872;BME280;26591;43.264;26.940;2023-04-09T02:47:26;99480.00;;;5.69;81.34
40872;BME280;26591;43.264;26.940;2023-04-09T02:49:52;99472.19;;;5.78;81.85
40872;BME280;26591;43.264;26.940;2023-04-09T02:52:20;99462.09;;;5.62;81.68
40872;BME280;26591;43.264;26.940;2023-04-09T02:54:48;99465.38;;;5.76;82.02
40872;BME280;26591;43.264;26.940;2023-04-09T02:57:14;99467.91;;;5.77;81.83
40872;BME280;26591;43.264;26.940;2023-04-09T02:59:39;99470.16;;;5.82;82.10
40872;BME280;26591;43.264;26.940;2023-04-09T03:02:05;99468.47;;;5.81;81.47
40872;BME280;26591;43.264;26.940;2023-04-09T03:04:30;99465.19;;;5.68;81.60
40872;BME280;26591;43.264;26.940;2023-04-09T03:06:56;99466.94;;;5.34;82.60
40872;BME280;26591;43.264;26.940;2023-04-09T03:09:21;99467.84;;;5.56;82.83
40872;BME280;26591;43.264;26.940;2023-04-09T03:11:47;99461.16;;;5.52;82.91
40872;BME280;26591;43.264;26.940;2023-04-09T03:14:12;99461.31;;;5.39;83.07
40872;BME280;26591;43.264;26.940;2023-04-09T03:16:37;99467.66;;;5.25;83.11
40872;BME280;26591;43.264;26.940;2023-04-09T03:19:03;99461.00;;;5.10;83.62
40872;BME280;26591;43.264;26.940;2023-04-09T03:21:28;99463.38;;;5.13;83.52
40872;BME280;26591;43.264;26.940;2023-04-09T03:23:54;99463.16;;;4.82;83.49
40872;BME280;26591;43.264;26.940;2023-04-09T03:26:20;99462.28;;;4.93;83.74
40872;BME280;26591;43.264;26.940;2023-04-09T03:28:45;99472.19;;;4.78;84.03
40872;BME280;26591;43.264;26.940;2023-04-09T03:31:10;99470.63;;;4.64;84.38
40872;BME280;26591;43.264;26.940;2023-04-09T03:33:38;99471.75;;;4.84;83.97
40872;BME280;26591;43.264;26.940;2023-04-09T03:36:04;99470.19;;;5.04;83.89
40872;BME280;26591;43.264;26.940;2023-04-09T03:38:29;99472.19;;;5.00;83.86
40872;BME280;26591;43.264;26.940;2023-04-09T03:40:55;99477.69;;;5.09;83.50
40872;BME280;26591;43.264;26.940;2023-04-09T03:43:23;99477.34;;;4.91;84.07
40872;BME280;26591;43.264;26.940;2023-04-09T03:45:50;99479.94;;;4.79;84.90
40872;BME280;26591;43.264;26.940;2023-04-09T03:48:15;99485.16;;;4.56;86.00
40872;BME280;26591;43.264;26.940;2023-04-09T03:50:41;99490.16;;;4.48;86.60
40872;BME280;26591;43.264;26.940;2023-04-09T03:53:07;99492.78;;;4.48;87.32
40872;BME280;26591;43.264;26.940;2023-04-09T03:55:32;99490.75;;;4.40;87.41
40872;BME280;26591;43.264;26.940;2023-04-09T03:57:59;99490.31;;;4.69;87.40
40872;BME280;26591;43.264;26.940;2023-04-09T04:00:24;99500.75;;;4.47;87.81
40872;BME280;26591;43.264;26.940;2023-04-09T04:02:50;99494.06;;;4.42;87.89
40872;BME280;26591;43.264;26.940;2023-04-09T04:05:16;99495.88;;;4.53;87.84
40872;BME280;26591;43.264;26.940;2023-04-09T04:07:41;99482.19;;;4.14;88.85
40872;BME280;26591;43.264;26.940;2023-04-09T04:10:08;99488.25;;;4.15;88.43
40872;BME280;26591;43.264;26.940;2023-04-09T04:12:39;99492.88;;;4.35;87.81
40872;BME280;26591;43.264;26.940;2023-04-09T04:15:05;99486.50;;;3.91;88.69
40872;BME280;26591;43.264;26.940;2023-04-09T04:17:30;99487.06;;;3.83;89.25
40872;BME280;26591;43.264;26.940;2023-04-09T04:19:56;99488.28;;;3.90;89.59
40872;BME280;26591;43.264;26.940;2023-04-09T04:22:24;99489.69;;;3.83;89.47
40872;BME280;26591;43.264;26.940;2023-04-09T04:24:49;99488.63;;;3.86;89.69
40872;BME280;26591;43.264;26.940;2023-04-09T04:27:15;99488.44;;;4.00;89.63
40872;BME280;26591;43.264;26.940;2023-04-09T04:29:40;99489.91;;;4.04;89.95
40872;BME280;26591;43.264;26.940;2023-04-09T04:32:06;99489.69;;;4.07;89.64
40872;BME280;26591;43.264;26.940;2023-04-09T04:34:31;99494.06;;;4.07;89.91
40872;BME280;26591;43.264;26.940;2023-04-09T04:36:57;99495.22;;;4.27;89.75
40872;BME280;26591;43.264;26.940;2023-04-09T04:39:22;99487.78;;;4.45;89.56
40872;BME280;26591;43.264;26.940;2023-04-09T04:41:48;99496.09;;;4.39;89.01
40872;BME280;26591;43.264;26.940;2023-04-09T04:44:13;99488.81;;;4.42;89.14
40872;BME280;26591;43.264;26.940;2023-04-09T04:46:38;99502.34;;;4.61;88.59
40872;BME280;26591;43.264;26.940;2023-04-09T04:49:04;99503.66;;;4.78;88.26
40872;BME280;26591;43.264;26.940;2023-04-09T04:51:30;99495.66;;;4.68;88.70
40872;BME280;26591;43.264;26.940;2023-04-09T04:53:56;99508.41;;;4.72;88.36
40872;BME280;26591;43.264;26.940;2023-04-09T04:56:21;99509.41;;;4.94;87.97
40872;BME280;26591;43.264;26.940;2023-04-09T04:58:48;99509.91;;;5.11;87.85
40872;BME280;26591;43.264;26.940;2023-04-09T05:01:14;99512.66;;;5.21;87.41
40872;BME280;26591;43.264;26.940;2023-04-09T05:03:39;99519.81;;;5.18;87.57
40872;BME280;26591;43.264;26.940;2023-04-09T05:06:05;99517.88;;;5.43;86.51
40872;BME280;26591;43.264;26.940;2023-04-09T05:08:30;99516.09;;;5.44;86.36
40872;BME280;26591;43.264;26.940;2023-04-09T05:10:56;99517.94;;;5.64;86.15
40872;BME280;26591;43.264;26.940;2023-04-09T05:13:22;99519.47;;;5.78;85.16
40872;BME280;26591;43.264;26.940;2023-04-09T05:15:48;99516.97;;;5.77;84.95
40872;BME280;26591;43.264;26.940;2023-04-09T05:18:13;99519.38;;;5.69;85.12
40872;BME280;26591;43.264;26.940;2023-04-09T05:20:39;99515.56;;;5.73;85.23
40872;BME280;26591;43.264;26.940;2023-04-09T05:23:04;99505.22;;;5.48;85.36
40872;BME280;26591;43.264;26.940;2023-04-09T05:25:30;99515.56;;;5.73;85.54
40872;BME280;26591;43.264;26.940;2023-04-09T05:27:56;99513.63;;;5.86;84.97
40872;BME280;26591;43.264;26.940;2023-04-09T05:30:21;99516.19;;;5.98;85.28
40872;BME280;26591;43.264;26.940;2023-04-09T05:32:47;99517.06;;;5.87;85.27
40872;BME280;26591;43.264;26.940;2023-04-09T05:35:12;99517.78;;;5.89;84.51
40872;BME280;26591;43.264;26.940;2023-04-09T05:37:38;99520.81;;;5.73;84.88
40872;BME280;26591;43.264;26.940;2023-04-09T05:40:04;99520.88;;;5.94;84.87
40872;BME280;26591;43.264;26.940;2023-04-09T05:42:29;99521.53;;;6.19;84.56
40872;BME280;26591;43.264;26.940;2023-04-09T05:44:55;99523.97;;;6.32;84.32
40872;BME280;26591;43.264;26.940;2023-04-09T05:47:20;99522.56;;;6.28;83.70
40872;BME280;26591;43.264;26.940;2023-04-09T05:49:46;99524.00;;;6.53;82.51
40872;BME280;26591;43.264;26.940;2023-04-09T05:52:11;99527.31;;;6.55;83.19
40872;BME280;26591;43.264;26.940;2023-04-09T05:54:37;99528.97;;;6.77;83.05
40872;BME280;26591;43.264;26.940;2023-04-09T05:57:02;99530.50;;;7.01;81.71
40872;BME280;26591;43.264;26.940;2023-04-09T05:59:28;99523.44;;;7.01;81.14
40872;BME280;26591;43.264;26.940;2023-04-09T06:01:53;99522.00;;;7.18;80.51
40872;BME280;26591;43.264;26.940;2023-04-09T06:04:18;99526.47;;;7.28;80.15
40872;BME280;26591;43.264;26.940;2023-04-09T06:06:44;99530.19;;;7.25;80.17
40872;BME280;26591;43.264;26.940;2023-04-09T06:09:11;99541.06;;;7.42;79.30
40872;BME280;26591;43.264;26.940;2023-04-09T06:11:36;99529.56;;;7.53;79.93
40872;BME280;26591;43.264;26.940;2023-04-09T06:14:02;99525.00;;;7.55;79.07
40872;BME280;26591;43.264;26.940;2023-04-09T06:16:32;99525.06;;;7.74;79.85
40872;BME280;26591;43.264;26.940;2023-04-09T06:18:57;99530.47;;;7.63;78.56
40872;BME280;26591;43.264;26.940;2023-04-09T06:21:23;99536.63;;;7.93;78.38
40872;BME280;26591;43.264;26.940;2023-04-09T06:23:48;99532.03;;;8.24;78.15
40872;BME280;26591;43.264;26.940;2023-04-09T06:26:15;99535.66;;;8.53;76.51
40872;BME280;26591;43.264;26.940;2023-04-09T06:28:41;99527.19;;;8.20;76.28
40872;BME280;26591;43.264;26.940;2023-04-09T06:31:07;99535.66;;;7.94;77.40
40872;BME280;26591;43.264;26.940;2023-04-09T06:33:32;99529.13;;;8.08;76.70
40872;BME280;26591;43.264;26.940;2023-04-09T06:35:58;99531.78;;;8.18;77.14
40872;BME280;26591;43.264;26.940;2023-04-09T06:38:23;99535.13;;;8.30;76.17
40872;BME280;26591;43.264;26.940;2023-04-09T06:40:49;99529.25;;;8.26;76.60
40872;BME280;26591;43.264;26.940;2023-04-09T06:43:17;99533.28;;;8.40;75.75
40872;BME280;26591;43.264;26.940;2023-04-09T06:45:43;99535.09;;;8.49;75.17
40872;BME280;26591;43.264;26.940;2023-04-09T06:48:08;99534.28;;;8.49;76.05
40872;BME280;26591;43.264;26.940;2023-04-09T06:50:34;99534.66;;;8.74;74.98
40872;BME280;26591;43.264;26.940;2023-04-09T06:52:59;99533.91;;;9.01;74.26
40872;BME280;26591;43.264;26.940;2023-04-09T06:55:27;99528.34;;;9.04;74.39
40872;BME280;26591;43.264;26.940;2023-04-09T06:57:53;99529.78;;;9.26;74.02
40872;BME280;26591;43.264;26.940;2023-04-09T07:00:18;99526.69;;;9.41;73.08
40872;BME280;26591;43.264;26.940;2023-04-09T07:02:44;99530.78;;;9.25;73.07
40872;BME280;26591;43.264;26.940;2023-04-09T07:05:09;99534.31;;;9.34;73.54
40872;BME280;26591;43.264;26.940;2023-04-09T07:07:35;99528.63;;;9.39;72.76
40872;BME280;26591;43.264;26.940;2023-04-09T07:10:06;99537.09;;;9.42;73.25
40872;BME280;26591;43.264;26.940;2023-04-09T07:12:32;99543.78;;;9.37;73.35
40872;BME280;26591;43.264;26.940;2023-04-09T07:15:00;99537.53;;;9.38;72.91
40872;BME280;26591;43.264;26.940;2023-04-09T07:17:26;99537.84;;;9.53;72.88
40872;BME280;26591;43.264;26.940;2023-04-09T07:19:52;99540.66;;;9.51;73.08
40872;BME280;26591;43.264;26.940;2023-04-09T07:22:20;99538.31;;;9.48;72.55
40872;BME280;26591;43.264;26.940;2023-04-09T07:24:46;99539.72;;;9.42;71.77
40872;BME280;26591;43.264;26.940;2023-04-09T07:27:18;99533.63;;;9.70;71.86
40872;BME280;26591;43.264;26.940;2023-04-09T07:29:47;99525.78;;;10.14;70.67
40872;BME280;26591;43.264;26.940;2023-04-09T07:32:13;99527.72;;;10.66;69.30
40872;BME280;26591;43.264;26.940;2023-04-09T07:34:38;99527.38;;;10.88;68.17
40872;BME280;26591;43.264;26.940;2023-04-09T07:37:16;99528.47;;;11.38;66.94
40872;BME280;26591;43.264;26.940;2023-04-09T07:39:41;99528.59;;;11.79;66.64
40872;BME280;26591;43.264;26.940;2023-04-09T07:42:07;99540.63;;;12.66;64.31
40872;BME280;26591;43.264;26.940;2023-04-09T07:44:33;99532.31;;;13.50;61.47
40872;BME280;26591;43.264;26.940;2023-04-09T07:47:00;99531.38;;;13.98;59.40
40872;BME280;26591;43.264;26.940;2023-04-09T07:49:25;99530.09;;;13.62;57.96
40872;BME280;26591;43.264;26.940;2023-04-09T07:51:51;99526.06;;;14.21;57.73
40872;BME280;26591;43.264;26.940;2023-04-09T07:54:16;99527.13;;;13.88;56.72
40872;BME280;26591;43.264;26.940;2023-04-09T07:56:43;99526.13;;;13.89;57.31
40872;BME280;26591;43.264;26.940;2023-04-09T07:59:09;99524.63;;;14.57;55.93
40872;BME280;26591;43.264;26.940;2023-04-09T08:01:39;99532.63;;;14.95;54.97
40872;BME280;26591;43.264;26.940;2023-04-09T08:04:05;99535.13;;;15.41;53.07
40872;BME280;26591;43.264;26.940;2023-04-09T08:06:30;99527.22;;;15.18;53.56
40872;BME280;26591;43.264;26.940;2023-04-09T08:08:56;99532.25;;;15.58;53.18
40872;BME280;26591;43.264;26.940;2023-04-09T08:11:21;99535.16;;;16.15;52.41
40872;BME280;26591;43.264;26.940;2023-04-09T08:13:53;99529.94;;;16.57;50.65
40872;BME280;26591;43.264;26.940;2023-04-09T08:16:19;99536.16;;;15.77;52.19
40872;BME280;26591;43.264;26.940;2023-04-09T08:18:46;99535.03;;;15.86;52.48
40872;BME280;26591;43.264;26.940;2023-04-09T08:21:11;99536.81;;;14.74;53.66
40872;BME280;26591;43.264;26.940;2023-04-09T08:23:37;99533.09;;;15.44;52.35
40872;BME280;26591;43.264;26.940;2023-04-09T08:26:03;99531.50;;;16.01;51.23
40872;BME280;26591;43.264;26.940;2023-04-09T08:28:28;99530.84;;;15.99;50.76
40872;BME280;26591;43.264;26.940;2023-04-09T08:30:54;99533.94;;;15.81;51.37
40872;BME280;26591;43.264;26.940;2023-04-09T08:33:20;99522.25;;;14.62;53.09
40872;BME280;26591;43.264;26.940;2023-04-09T08:35:45;99526.47;;;15.09;52.71
40872;BME280;26591;43.264;26.940;2023-04-09T08:38:11;99524.06;;;15.45;52.22
40872;BME280;26591;43.264;26.940;2023-04-09T08:40:36;99522.41;;;15.95;51.02
40872;BME280;26591;43.264;26.940;2023-04-09T08:43:05;99526.72;;;15.45;50.16
40872;BME280;26591;43.264;26.940;2023-04-09T08:45:32;99518.13;;;15.79;50.17
40872;BME280;26591;43.264;26.940;2023-04-09T08:48:16;99522.91;;;15.69;49.09
40872;BME280;26591;43.264;26.940;2023-04-09T08:50:42;99517.19;;;15.72;49.06
40872;BME280;26591;43.264;26.940;2023-04-09T08:53:11;99525.28;;;15.79;48.11
40872;BME280;26591;43.264;26.940;2023-04-09T08:55:36;99523.09;;;15.67;49.57
40872;BME280;26591;43.264;26.940;2023-04-09T08:58:05;99515.44;;;15.28;49.99
40872;BME280;26591;43.264;26.940;2023-04-09T09:00:35;99514.41;;;15.44;49.20
40872;BME280;26591;43.264;26.940;2023-04-09T09:03:08;99519.28;;;15.40;49.45
40872;BME280;26591;43.264;26.940;2023-04-09T09:05:39;99510.56;;;15.01;49.62
40872;BME280;26591;43.264;26.940;2023-04-09T09:08:09;99511.84;;;15.50;49.06
40872;BME280;26591;43.264;26.940;2023-04-09T09:10:42;99514.78;;;15.25;48.52
40872;BME280;26591;43.264;26.940;2023-04-09T09:13:18;99510.75;;;15.00;49.75
40872;BME280;26591;43.264;26.940;2023-04-09T09:15:44;99511.38;;;15.32;49.02
40872;BME280;26591;43.264;26.940;2023-04-09T09:18:12;99513.84;;;15.33;49.09
40872;BME280;26591;43.264;26.940;2023-04-09T09:20:37;99501.97;;;15.51;48.44
40872;BME280;26591;43.264;26.940;2023-04-09T09:23:03;99509.75;;;15.67;48.13
40872;BME280;26591;43.264;26.940;2023-04-09T09:25:36;99499.28;;;15.66;48.32
40872;BME280;26591;43.264;26.940;2023-04-09T09:28:07;99508.34;;;15.20;49.45
40872;BME280;26591;43.264;26.940;2023-04-09T09:30:33;99506.44;;;15.65;48.40
40872;BME280;26591;43.264;26.940;2023-04-09T09:33:10;99497.34;;;16.40;46.83
40872;BME280;26591;43.264;26.940;2023-04-09T09:35:48;99500.44;;;16.15;47.04
40872;BME280;26591;43.264;26.940;2023-04-09T09:38:14;99497.94;;;15.92;47.34
40872;BME280;26591;43.264;26.940;2023-04-09T09:40:41;99498.97;;;16.34;46.59
40872;BME280;26591;43.264;26.940;2023-04-09T09:43:06;99497.09;;;15.91;47.34
40872;BME280;26591;43.264;26.940;2023-04-09T09:45:32;99494.06;;;15.94;47.33
40872;BME280;26591;43.264;26.940;2023-04-09T09:47:58;99499.38;;;15.73;46.07
40872;BME280;26591;43.264;26.940;2023-04-09T09:50:24;99495.84;;;15.72;46.38
40872;BME280;26591;43.264;26.940;2023-04-09T09:52:57;99490.06;;;16.55;45.45
40872;BME280;26591;43.264;26.940;2023-04-09T09:55:25;99492.25;;;15.95;46.66
40872;BME280;26591;43.264;26.940;2023-04-09T09:57:53;99485.84;;;14.92;48.26
40872;BME280;26591;43.264;26.940;2023-04-09T10:00:21;99486.19;;;14.74;47.82
40872;BME280;26591;43.264;26.940;2023-04-09T10:03:13;99485.53;;;15.47;45.91
40872;BME280;26591;43.264;26.940;2023-04-09T10:05:39;99485.66;;;16.19;45.60
40872;BME280;26591;43.264;26.940;2023-04-09T10:08:11;99476.91;;;16.04;44.59
40872;BME280;26591;43.264;26.940;2023-04-09T10:10:38;99471.47;;;16.69;44.14
40872;BME280;26591;43.264;26.940;2023-04-09T10:13:32;99477.91;;;17.10;43.07
40872;BME280;26591;43.264;26.940;2023-04-09T10:15:59;99474.47;;;16.87;43.22
40872;BME280;26591;43.264;26.940;2023-04-09T10:18:26;99471.38;;;17.19;42.51
40872;BME280;26591;43.264;26.940;2023-04-09T10:21:16;99478.56;;;16.26;42.43
40872;BME280;26591;43.264;26.940;2023-04-09T10:23:47;99475.19;;;15.59;43.59
40872;BME280;26591;43.264;26.940;2023-04-09T10:26:17;99474.94;;;15.54;43.64
40872;BME280;26591;43.264;26.940;2023-04-09T10:28:42;99460.38;;;15.93;43.07
40872;BME280;26591;43.264;26.940;2023-04-09T10:31:08;99458.19;;;16.25;42.33
40872;BME280;26591;43.264;26.940;2023-04-09T10:33:35;99458.31;;;16.39;41.09
40872;BME280;26591;43.264;26.940;2023-04-09T10:36:19;99467.22;;;16.81;40.67
40872;BME280;26591;43.264;26.940;2023-04-09T10:38:46;99459.09;;;17.45;38.22
40872;BME280;26591;43.264;26.940;2023-04-09T10:43:41;99447.69;;;17.78;37.88
40872;BME280;26591;43.264;26.940;2023-04-09T10:46:28;99444.03;;;18.33;37.43
40872;BME280;26591;43.264;26.940;2023-04-09T10:49:11;99444.16;;;18.85;35.89
40872;BME280;26591;43.264;26.940;2023-04-09T10:51:40;99430.56;;;18.86;36.07
40872;BME280;26591;43.264;26.940;2023-04-09T10:59:35;99434.53;;;17.96;37.33
40872;BME280;26591;43.264;26.940;2023-04-09T11:02:01;99427.06;;;17.03;39.43
40872;BME280;26591;43.264;26.940;2023-04-09T11:07:39;99431.81;;;16.37;38.31
40872;BME280;26591;43.264;26.940;2023-04-09T11:10:06;99420.69;;;16.97;37.25
40872;BME280;26591;43.264;26.940;2023-04-09T11:12:32;99418.03;;;16.12;39.91
40872;BME280;26591;43.264;26.940;2023-04-09T11:14:57;99424.97;;;16.35;38.99
40872;BME280;26591;43.264;26.940;2023-04-09T11:17:23;99424.81;;;16.71;39.88
40872;BME280;26591;43.264;26.940;2023-04-09T11:19:48;99422.13;;;17.00;38.54
40872;BME280;26591;43.264;26.940;2023-04-09T11:22:14;99416.81;;;16.78;37.84
40872;BME280;26591;43.264;26.940;2023-04-09T11:24:41;99396.34;;;17.41;37.76
40872;BME280;26591;43.264;26.940;2023-04-09T11:27:07;99411.13;;;17.30;38.14
40872;BME280;26591;43.264;26.940;2023-04-09T11:29:36;99413.13;;;17.14;38.30
40872;BME280;26591;43.264;26.940;2023-04-09T11:32:02;99398.28;;;16.98;38.71
40872;BME280;26591;43.264;26.940;2023-04-09T11:34:32;99399.53;;;17.16;37.86
40872;BME280;26591;43.264;26.940;2023-04-09T11:36:58;99417.22;;;16.68;37.71
40872;BME280;26591;43.264;26.940;2023-04-09T11:39:26;99409.16;;;16.61;38.46
40872;BME280;26591;43.264;26.940;2023-04-09T11:41:51;99399.53;;;17.09;37.33
40872;BME280;26591;43.264;26.940;2023-04-09T11:44:19;99387.88;;;17.30;37.80
40872;BME280;26591;43.264;26.940;2023-04-09T11:46:45;99375.28;;;17.17;37.36
40872;BME280;26591;43.264;26.940;2023-04-09T11:49:16;99379.34;;;18.15;36.69
40872;BME280;26591;43.264;26.940;2023-04-09T11:51:42;99380.34;;;18.35;35.53
40872;BME280;26591;43.264;26.940;2023-04-09T11:54:07;99379.59;;;17.12;36.57
40872;BME280;26591;43.264;26.940;2023-04-09T11:56:34;99374.50;;;16.82;37.61
40872;BME280;26591;43.264;26.940;2023-04-09T11:59:01;99362.97;;;17.23;36.96
40872;BME280;26591;43.264;26.940;2023-04-09T12:01:33;99364.09;;;18.16;35.64
40872;BME280;26591;43.264;26.940;2023-04-09T12:03:59;99368.84;;;18.01;35.45
40872;BME280;26591;43.264;26.940;2023-04-09T12:06:25;99356.88;;;17.76;35.92
40872;BME280;26591;43.264;26.940;2023-04-09T12:08:56;99361.38;;;17.56;37.00
40872;BME280;26591;43.264;26.940;2023-04-09T12:11:30;99357.22;;;17.26;37.56
40872;BME280;26591;43.264;26.940;2023-04-09T12:14:03;99354.16;;;16.81;37.88
40872;BME280;26591;43.264;26.940;2023-04-09T12:16:35;99352.94;;;17.45;38.57
40872;BME280;26591;43.264;26.940;2023-04-09T12:19:07;99353.91;;;17.17;38.93
40872;BME280;26591;43.264;26.940;2023-04-09T12:21:46;99343.34;;;17.02;38.67
40872;BME280;26591;43.264;26.940;2023-04-09T12:24:12;99345.66;;;17.19;39.18
40872;BME280;26591;43.264;26.940;2023-04-09T12:26:38;99351.69;;;16.86;37.92
40872;BME280;26591;43.264;26.940;2023-04-09T12:29:04;99339.91;;;17.15;38.41
40872;BME280;26591;43.264;26.940;2023-04-09T12:31:29;99329.63;;;17.26;37.22
40872;BME280;26591;43.264;26.940;2023-04-09T12:33:55;99328.38;;;17.15;37.42
40872;BME280;26591;43.264;26.940;2023-04-09T12:36:20;99331.16;;;16.86;37.74
40872;BME280;26591;43.264;26.940;2023-04-09T12:38:48;99325.19;;;16.91;38.38
40872;BME280;26591;43.264;26.940;2023-04-09T12:41:16;99326.31;;;17.17;37.56
40872;BME280;26591;43.264;26.940;2023-04-09T12:43:41;99332.16;;;17.61;37.26
40872;BME280;26591;43.264;26.940;2023-04-09T12:46:08;99326.56;;;16.73;37.77
40872;BME280;26591;43.264;26.940;2023-04-09T12:48:34;99319.56;;;16.72;37.76
40872;BME280;26591;43.264;26.940;2023-04-09T12:51:00;99322.91;;;16.88;38.02
40872;BME280;26591;43.264;26.940;2023-04-09T12:53:28;99320.13;;;16.96;37.89
40872;BME280;26591;43.264;26.940;2023-04-09T12:55:53;99311.75;;;17.26;37.62
40872;BME280;26591;43.264;26.940;2023-04-09T12:58:19;99315.31;;;18.01;36.22
40872;BME280;26591;43.264;26.940;2023-04-09T13:00:44;99311.97;;;17.92;35.69
40872;BME280;26591;43.264;26.940;2023-04-09T13:03:10;99318.53;;;17.29;36.07
40872;BME280;26591;43.264;26.940;2023-04-09T13:05:36;99316.44;;;16.62;38.00
40872;BME280;26591;43.264;26.940;2023-04-09T13:08:01;99314.84;;;15.97;38.68
40872;BME280;26591;43.264;26.940;2023-04-09T13:10:28;99307.44;;;15.71;39.18
40872;BME280;26591;43.264;26.940;2023-04-09T13:12:54;99304.72;;;15.64;39.53
40872;BME280;26591;43.264;26.940;2023-04-09T13:15:20;99303.19;;;15.55;38.47
40872;BME280;26591;43.264;26.940;2023-04-09T13:17:46;99307.25;;;15.51;39.22